Currently 62°F in Beaumont, California, USA
62°F
62°F / 51°F
3 mph S
0.00"
Wednesday, October 28, 2020 9:59 AM PDT

Beaumont, California Weather Summary
Last 36 Hours

Temperature Winds Hourly Humidity Dewpoint
Time Report Norm Report Norm Max Gusts Precip. Rpt. Norm Rpt. Norm Pressure
1Wed 09:59 AM  61.9°F  66°F  3 mph S  5 mph  5 mph  0.00"  17%  37%  15°F  38°F  30.11"
2Wed 09:52 AM  61.9°F  66°F  4 mph SE  5 mph  5 mph  ----  18%  37%  16°F  38°F  30.11"
Wed 09:00 AM  59.9°F  64°F  1 mph S  4 mph  5 mph  0.00"  18%  39%  14°F  38°F  30.12"
Wed 08:00 AM  56.7°F  61°F  1 mph NW  3 mph  5 mph  0.00"  20%  41%  14°F  37°F  30.11"
Wed 07:00 AM  51.3°F  59°F  4 mph NW  4 mph  7 mph  0.00"  23%  43%  13°F  35°F  30.11"
Wed 06:00 AM  51.3°F  59°F  4 mph W  4 mph  5 mph  0.00"  24%  43%  14°F  35°F  30.09"
Wed 05:00 AM  51.6°F  59°F  4 mph W  4 mph  3 mph  0.00"  23%  43%  13°F  36°F  30.09"
Wed 04:00 AM  52.0°F  59°F  2 mph NW  4 mph  5 mph  0.00"  25%  44%  16°F  36°F  30.09"
Wed 03:00 AM  51.1°F  59°F  3 mph NW  4 mph  5 mph  0.00"  23%  44%  13°F  37°F  30.09"
3Wed 02:21 AM  50.5°F  59°F  4 mph NW  4 mph  5 mph  ----  22%  45%  11°F  37°F  30.09"
Wed 02:00 AM  51.4°F  59°F  3 mph NW  4 mph  3 mph  0.00"  22%  45%  12°F  37°F  30.09"
Wed 01:01 AM  54.1°F  60°F  3 mph N  3 mph  6 mph  0.00"  20%  46%  12°F  38°F  30.11"
Wed 12:00 AM  54.9°F  60°F  3 mph NE  3 mph  5 mph  0.00"  18%  45%  10°F  38°F  30.12"
Tue 11:00 PM  55.0°F  60°F  1 mph N  3 mph  8 mph  0.00"  16%  46%  8°F  38°F  30.12"
Tue 10:00 PM  54.9°F  61°F  2 mph N  3 mph  7 mph  0.00"  15%  45%  6°F  39°F  30.11"
Tue 09:00 PM  54.7°F  62°F  2 mph N  4 mph  9 mph  0.00"  15%  45%  6°F  39°F  30.09"
Tue 08:00 PM  57.7°F  63°F  5 mph N  4 mph  14 mph  0.00"  14%  43%  7°F  39°F  30.08"
Tue 07:00 PM  57.0°F  64°F  5 mph N  4 mph  8 mph  0.00"  13%  41%  4°F  39°F  30.07"
Tue 06:01 PM  58.6°F  66°F  2 mph N  4 mph  12 mph  0.00"  13%  38%  6°F  39°F  30.06"
Tue 05:00 PM  61.3°F  69°F  6 mph N  5 mph  14 mph  0.00"  12%  33%  6°F  38°F  30.05"
Tue 04:00 PM  63.0°F  71°F  7 mph SE  6 mph  13 mph  0.00"  11%  31%  5°F  38°F  30.06"
Tue 03:00 PM  62.8°F  72°F  5 mph E  6 mph  18 mph  0.00"  10%  31%  3°F  38°F  30.05"
Tue 02:00 PM  62.1°F  72°F  8 mph E  7 mph  20 mph  0.00"  10%  31%  2°F  38°F  30.05"
Tue 01:00 PM  61.0°F  71°F  12 mph NE  7 mph  22 mph  0.00"  10%  31%  1°F  38°F  30.07"
Tue 12:00 PM  61.3°F  70°F  8 mph E  7 mph  18 mph  0.00"  8%  32%  -3°F  38°F  30.10"
Tue 11:00 AM  60.3°F  69°F  10 mph SE  6 mph  17 mph  0.00"  8%  34%  -4°F  38°F  30.11"
Tue 10:00 AM  58.3°F  67°F  7 mph E  5 mph  14 mph  0.00"  8%  37%  -6°F  38°F  30.11"
Tue 09:00 AM  55.0°F  65°F  8 mph E  4 mph  14 mph  0.00"  9%  39%  -6°F  38°F  30.12"
Tue 08:00 AM  52.9°F  62°F  3 mph E  3 mph  10 mph  0.00"  11%  42%  -3°F  38°F  30.10"
Tue 07:00 AM  50.5°F  59°F  6 mph NE  4 mph  9 mph  0.00"  11%  43%  -5°F  36°F  30.10"
Tue 06:00 AM  47.5°F  59°F  1 mph N  4 mph  5 mph  0.00"  12%  43%  -5°F  36°F  30.09"
Tue 05:00 AM  47.8°F  60°F  3 mph NW  4 mph  5 mph  0.00"  11%  44%  -7°F  37°F  30.08"
Tue 04:00 AM  46.9°F  60°F  2 mph N  4 mph  3 mph  0.00"  11%  44%  -8°F  37°F  30.08"
Tue 03:00 AM  48.4°F  60°F  4 mph W  4 mph  7 mph  0.00"  10%  45%  -9°F  37°F  30.09"
Tue 02:00 AM  49.5°F  60°F  3 mph NW  4 mph  6 mph  0.00"  9%  46%  -10°F  38°F  30.09"
Tue 01:00 AM  48.9°F  60°F  2 mph N  3 mph  6 mph  0.00"  9%  46%  -10°F  38°F  30.09"
Tue 12:00 AM  49.5°F  61°F  2 mph N  3 mph  9 mph  0.00"  8%  45%  -13°F  38°F  30.10"
Mon 11:00 PM  46.6°F  61°F  3 mph N  3 mph  6 mph  0.00"  9%  46%  -12°F  39°F  30.09"
Mon 10:00 PM  51.1°F  62°F  3 mph N  3 mph  8 mph  0.00"  7%  45%  -14°F  39°F  30.08"

  1. Current weather data. No green row appears if the current weather data is also the high or low for the current day.
  2. High temperature for the current day.
  3. Low temperature for the current day.

The Beaumont, California weather pages are a service of WeatherCurrents. Cherry Valley is located in northern Riverside County, California, a community of the northern part of Beaumont, along the Interstate 10 highway, in the San Gorgonio pass area, between the communities of Calimesa, Banning.
Copyright ©2020  WeatherCurrents. All rights reserved. - Submit questions and comments - Privacy Policy

This page automatically refreshes every 10 minutes.